sensor_id;sensor_type;location;lat;lon;timestamp;temperature;humidity
70548;DHT22;58099;43.406;3.698;2023-06-22T00:00:27;23.10;99.90
70548;DHT22;58099;43.406;3.698;2023-06-22T00:02:53;23.10;99.90
70548;DHT22;58099;43.406;3.698;2023-06-22T00:05:19;23.10;99.90
70548;DHT22;58099;43.406;3.698;2023-06-22T00:07:44;23.10;99.90
70548;DHT22;58099;43.406;3.698;2023-06-22T00:10:10;23.10;99.90
70548;DHT22;58099;43.406;3.698;2023-06-22T00:12:36;23.20;99.90
70548;DHT22;58099;43.406;3.698;2023-06-22T00:15:02;23.20;99.90
70548;DHT22;58099;43.406;3.698;2023-06-22T00:17:27;23.20;99.90
70548;DHT22;58099;43.406;3.698;2023-06-22T00:19:53;23.20;99.90
70548;DHT22;58099;43.406;3.698;2023-06-22T00:22:21;23.20;99.90
70548;DHT22;58099;43.406;3.698;2023-06-22T00:24:55;23.20;99.90
70548;DHT22;58099;43.406;3.698;2023-06-22T00:27:21;23.20;99.90
70548;DHT22;58099;43.406;3.698;2023-06-22T00:29:46;23.10;99.90
70548;DHT22;58099;43.406;3.698;2023-06-22T00:32:12;23.10;99.90
70548;DHT22;58099;43.406;3.698;2023-06-22T00:34:38;23.10;99.90
70548;DHT22;58099;43.406;3.698;2023-06-22T00:37:04;23.10;99.90
70548;DHT22;58099;43.406;3.698;2023-06-22T00:39:29;23.10;99.90
70548;DHT22;58099;43.406;3.698;2023-06-22T00:41:55;23.10;99.90
70548;DHT22;58099;43.406;3.698;2023-06-22T00:44:21;23.10;99.90
70548;DHT22;58099;43.406;3.698;2023-06-22T00:46:47;23.10;99.90
70548;DHT22;58099;43.406;3.698;2023-06-22T00:49:13;23.10;99.90
70548;DHT22;58099;43.406;3.698;2023-06-22T00:51:38;23.10;99.90
70548;DHT22;58099;43.406;3.698;2023-06-22T00:54:05;23.10;99.90
70548;DHT22;58099;43.406;3.698;2023-06-22T00:56:32;23.10;99.90
70548;DHT22;58099;43.406;3.698;2023-06-22T00:58:58;23.10;99.90
70548;DHT22;58099;43.406;3.698;2023-06-22T01:01:25;23.00;99.90
70548;DHT22;58099;43.406;3.698;2023-06-22T01:03:51;23.10;99.90
70548;DHT22;58099;43.406;3.698;2023-06-22T01:06:24;23.10;99.90
70548;DHT22;58099;43.406;3.698;2023-06-22T01:09:00;23.10;99.90
70548;DHT22;58099;43.406;3.698;2023-06-22T01:11:41;23.10;99.90
70548;DHT22;58099;43.406;3.698;2023-06-22T01:14:24;23.10;99.90
70548;DHT22;58099;43.406;3.698;2023-06-22T01:16:54;23.10;99.90
70548;DHT22;58099;43.406;3.698;2023-06-22T01:19:29;23.10;99.90
70548;DHT22;58099;43.406;3.698;2023-06-22T01:22:01;23.00;99.90
70548;DHT22;58099;43.406;3.698;2023-06-22T01:24:39;23.00;99.90
70548;DHT22;58099;43.406;3.698;2023-06-22T01:29:56;23.10;99.90
70548;DHT22;58099;43.406;3.698;2023-06-22T01:32:32;23.00;99.90
70548;DHT22;58099;43.406;3.698;2023-06-22T01:35:03;23.00;99.90
70548;DHT22;58099;43.406;3.698;2023-06-22T01:37:29;23.00;99.90
70548;DHT22;58099;43.406;3.698;2023-06-22T01:39:58;23.10;99.90
70548;DHT22;58099;43.406;3.698;2023-06-22T01:42:25;23.10;99.90
70548;DHT22;58099;43.406;3.698;2023-06-22T01:44:53;23.10;99.90
70548;DHT22;58099;43.406;3.698;2023-06-22T01:47:20;23.10;99.90
70548;DHT22;58099;43.406;3.698;2023-06-22T01:49:46;23.10;99.90
70548;DHT22;58099;43.406;3.698;2023-06-22T01:52:12;23.10;99.90
70548;DHT22;58099;43.406;3.698;2023-06-22T01:54:39;23.10;99.90
70548;DHT22;58099;43.406;3.698;2023-06-22T01:57:05;23.10;99.90
70548;DHT22;58099;43.406;3.698;2023-06-22T02:02:21;23.10;99.90
70548;DHT22;58099;43.406;3.698;2023-06-22T02:05:12;23.10;99.90
70548;DHT22;58099;43.406;3.698;2023-06-22T02:07:52;23.10;99.90
70548;DHT22;58099;43.406;3.698;2023-06-22T02:10:20;23.10;99.90
70548;DHT22;58099;43.406;3.698;2023-06-22T02:12:47;23.10;99.90
70548;DHT22;58099;43.406;3.698;2023-06-22T02:15:13;23.10;99.90
70548;DHT22;58099;43.406;3.698;2023-06-22T02:17:40;23.00;99.90
70548;DHT22;58099;43.406;3.698;2023-06-22T02:20:12;23.10;99.90
70548;DHT22;58099;43.406;3.698;2023-06-22T02:22:38;23.00;99.90
70548;DHT22;58099;43.406;3.698;2023-06-22T02:25:04;23.00;99.90
70548;DHT22;58099;43.406;3.698;2023-06-22T02:27:30;23.10;99.90
70548;DHT22;58099;43.406;3.698;2023-06-22T02:29:56;23.10;99.90
70548;DHT22;58099;43.406;3.698;2023-06-22T02:32:22;23.10;99.90
70548;DHT22;58099;43.406;3.698;2023-06-22T02:34:47;23.10;99.90
70548;DHT22;58099;43.406;3.698;2023-06-22T02:37:16;23.10;99.90
70548;DHT22;58099;43.406;3.698;2023-06-22T02:39:42;23.10;99.90
70548;DHT22;58099;43.406;3.698;2023-06-22T02:42:07;23.10;99.90
70548;DHT22;58099;43.406;3.698;2023-06-22T02:44:33;23.10;99.90
70548;DHT22;58099;43.406;3.698;2023-06-22T02:46:59;23.20;99.90
70548;DHT22;58099;43.406;3.698;2023-06-22T02:49:25;23.20;99.90
70548;DHT22;58099;43.406;3.698;2023-06-22T02:51:51;23.10;99.90
70548;DHT22;58099;43.406;3.698;2023-06-22T02:54:16;23.20;99.90
70548;DHT22;58099;43.406;3.698;2023-06-22T02:56:42;23.20;99.90
70548;DHT22;58099;43.406;3.698;2023-06-22T02:59:10;23.20;99.90
70548;DHT22;58099;43.406;3.698;2023-06-22T03:01:36;23.20;99.90
70548;DHT22;58099;43.406;3.698;2023-06-22T03:04:09;23.20;99.90
70548;DHT22;58099;43.406;3.698;2023-06-22T03:06:36;23.20;99.90
70548;DHT22;58099;43.406;3.698;2023-06-22T03:09:05;23.20;99.90
70548;DHT22;58099;43.406;3.698;2023-06-22T03:11:33;23.10;99.90
70548;DHT22;58099;43.406;3.698;2023-06-22T03:14:02;23.20;99.90
70548;DHT22;58099;43.406;3.698;2023-06-22T03:16:28;23.10;99.90
70548;DHT22;58099;43.406;3.698;2023-06-22T03:18:54;23.20;99.90
70548;DHT22;58099;43.406;3.698;2023-06-22T03:21:22;23.20;99.90
70548;DHT22;58099;43.406;3.698;2023-06-22T03:23:48;23.20;99.90
70548;DHT22;58099;43.406;3.698;2023-06-22T03:26:16;23.20;99.90
70548;DHT22;58099;43.406;3.698;2023-06-22T03:28:42;23.20;99.90
70548;DHT22;58099;43.406;3.698;2023-06-22T03:31:08;23.20;99.90
70548;DHT22;58099;43.406;3.698;2023-06-22T03:33:34;23.20;99.90
70548;DHT22;58099;43.406;3.698;2023-06-22T03:35:59;23.20;99.90
70548;DHT22;58099;43.406;3.698;2023-06-22T03:38:25;23.20;99.90
70548;DHT22;58099;43.406;3.698;2023-06-22T03:40:51;23.20;99.90
70548;DHT22;58099;43.406;3.698;2023-06-22T03:43:16;23.20;99.90
70548;DHT22;58099;43.406;3.698;2023-06-22T03:45:42;23.20;99.90
70548;DHT22;58099;43.406;3.698;2023-06-22T03:48:11;23.20;99.90
70548;DHT22;58099;43.406;3.698;2023-06-22T03:50:37;23.20;99.90
70548;DHT22;58099;43.406;3.698;2023-06-22T03:53:02;23.20;99.90
70548;DHT22;58099;43.406;3.698;2023-06-22T03:55:28;23.20;99.90
70548;DHT22;58099;43.406;3.698;2023-06-22T03:57:54;23.20;99.90
70548;DHT22;58099;43.406;3.698;2023-06-22T04:00:25;23.20;99.90
70548;DHT22;58099;43.406;3.698;2023-06-22T04:02:51;23.20;99.90
70548;DHT22;58099;43.406;3.698;2023-06-22T04:05:16;23.20;99.90
70548;DHT22;58099;43.406;3.698;2023-06-22T04:07:45;23.20;99.90
70548;DHT22;58099;43.406;3.698;2023-06-22T04:10:11;23.20;99.90
70548;DHT22;58099;43.406;3.698;2023-06-22T04:12:36;23.20;99.90
70548;DHT22;58099;43.406;3.698;2023-06-22T04:15:02;23.30;99.90
70548;DHT22;58099;43.406;3.698;2023-06-22T04:17:28;23.20;99.90
70548;DHT22;58099;43.406;3.698;2023-06-22T04:19:54;23.30;99.90
70548;DHT22;58099;43.406;3.698;2023-06-22T04:22:19;23.20;99.90
70548;DHT22;58099;43.406;3.698;2023-06-22T04:24:45;23.20;99.90
70548;DHT22;58099;43.406;3.698;2023-06-22T04:27:11;23.20;99.90
70548;DHT22;58099;43.406;3.698;2023-06-22T04:29:37;23.30;99.90
70548;DHT22;58099;43.406;3.698;2023-06-22T04:32:03;23.30;99.90
70548;DHT22;58099;43.406;3.698;2023-06-22T04:34:31;23.30;99.90
70548;DHT22;58099;43.406;3.698;2023-06-22T04:36:57;23.30;99.90
70548;DHT22;58099;43.406;3.698;2023-06-22T04:39:23;23.20;99.90
70548;DHT22;58099;43.406;3.698;2023-06-22T04:41:49;23.20;99.90
70548;DHT22;58099;43.406;3.698;2023-06-22T04:44:18;23.30;99.90
70548;DHT22;58099;43.406;3.698;2023-06-22T04:46:51;23.30;99.90
70548;DHT22;58099;43.406;3.698;2023-06-22T04:49:23;23.30;99.90
70548;DHT22;58099;43.406;3.698;2023-06-22T04:51:58;23.30;99.90
70548;DHT22;58099;43.406;3.698;2023-06-22T04:54:24;23.30;99.90
70548;DHT22;58099;43.406;3.698;2023-06-22T04:56:50;23.30;99.90
70548;DHT22;58099;43.406;3.698;2023-06-22T04:59:22;23.30;99.90
70548;DHT22;58099;43.406;3.698;2023-06-22T05:01:48;23.30;99.90
70548;DHT22;58099;43.406;3.698;2023-06-22T05:04:14;23.30;99.90
70548;DHT22;58099;43.406;3.698;2023-06-22T05:06:42;23.40;99.90
70548;DHT22;58099;43.406;3.698;2023-06-22T05:09:08;23.40;99.90
70548;DHT22;58099;43.406;3.698;2023-06-22T05:11:34;23.50;99.90
70548;DHT22;58099;43.406;3.698;2023-06-22T05:13:59;23.50;99.90
70548;DHT22;58099;43.406;3.698;2023-06-22T05:16:25;23.50;99.90
70548;DHT22;58099;43.406;3.698;2023-06-22T05:18:54;23.50;99.90
70548;DHT22;58099;43.406;3.698;2023-06-22T05:21:24;23.50;99.90
70548;DHT22;58099;43.406;3.698;2023-06-22T05:23:51;23.60;99.90
70548;DHT22;58099;43.406;3.698;2023-06-22T05:26:18;23.60;99.90
70548;DHT22;58099;43.406;3.698;2023-06-22T05:28:44;23.50;99.90
70548;DHT22;58099;43.406;3.698;2023-06-22T05:31:17;23.50;99.90
70548;DHT22;58099;43.406;3.698;2023-06-22T05:33:45;23.60;99.90
70548;DHT22;58099;43.406;3.698;2023-06-22T05:36:11;23.70;99.90
70548;DHT22;58099;43.406;3.698;2023-06-22T05:38:38;23.60;99.90
70548;DHT22;58099;43.406;3.698;2023-06-22T05:41:04;23.60;99.90
70548;DHT22;58099;43.406;3.698;2023-06-22T05:43:30;23.60;99.90
70548;DHT22;58099;43.406;3.698;2023-06-22T05:45:56;23.50;99.90
70548;DHT22;58099;43.406;3.698;2023-06-22T05:48:22;23.50;99.90
70548;DHT22;58099;43.406;3.698;2023-06-22T05:50:48;23.60;99.90
70548;DHT22;58099;43.406;3.698;2023-06-22T05:53:13;23.60;99.90
70548;DHT22;58099;43.406;3.698;2023-06-22T05:55:39;23.60;99.90
70548;DHT22;58099;43.406;3.698;2023-06-22T05:58:05;23.60;99.90
70548;DHT22;58099;43.406;3.698;2023-06-22T06:00:31;23.60;99.90
70548;DHT22;58099;43.406;3.698;2023-06-22T06:02:57;23.60;99.90
70548;DHT22;58099;43.406;3.698;2023-06-22T06:05:30;23.70;99.90
70548;DHT22;58099;43.406;3.698;2023-06-22T06:07:55;23.70;99.90
70548;DHT22;58099;43.406;3.698;2023-06-22T06:10:21;23.70;99.90
70548;DHT22;58099;43.406;3.698;2023-06-22T06:12:47;23.60;99.90
70548;DHT22;58099;43.406;3.698;2023-06-22T06:15:13;23.60;99.90
70548;DHT22;58099;43.406;3.698;2023-06-22T06:17:48;23.60;99.90
70548;DHT22;58099;43.406;3.698;2023-06-22T06:20:15;23.60;99.90
70548;DHT22;58099;43.406;3.698;2023-06-22T06:22:41;23.60;99.90
70548;DHT22;58099;43.406;3.698;2023-06-22T06:25:08;23.60;99.90
70548;DHT22;58099;43.406;3.698;2023-06-22T06:27:34;23.60;99.90
70548;DHT22;58099;43.406;3.698;2023-06-22T06:30:00;23.60;99.90
70548;DHT22;58099;43.406;3.698;2023-06-22T06:32:25;23.70;99.90
70548;DHT22;58099;43.406;3.698;2023-06-22T06:34:51;23.70;99.90
70548;DHT22;58099;43.406;3.698;2023-06-22T06:37:17;23.70;99.90
70548;DHT22;58099;43.406;3.698;2023-06-22T06:39:44;23.70;99.90
70548;DHT22;58099;43.406;3.698;2023-06-22T06:42:10;23.90;99.90
70548;DHT22;58099;43.406;3.698;2023-06-22T06:44:36;23.90;99.90
70548;DHT22;58099;43.406;3.698;2023-06-22T06:47:04;23.90;99.90
70548;DHT22;58099;43.406;3.698;2023-06-22T06:49:30;24.00;99.90
70548;DHT22;58099;43.406;3.698;2023-06-22T06:51:55;23.90;99.90
70548;DHT22;58099;43.406;3.698;2023-06-22T06:54:21;23.90;99.90
70548;DHT22;58099;43.406;3.698;2023-06-22T06:56:47;23.80;99.90
70548;DHT22;58099;43.406;3.698;2023-06-22T06:59:14;23.90;99.90
70548;DHT22;58099;43.406;3.698;2023-06-22T07:01:41;24.00;99.90
70548;DHT22;58099;43.406;3.698;2023-06-22T07:04:07;23.90;99.90
70548;DHT22;58099;43.406;3.698;2023-06-22T07:06:33;23.80;99.90
70548;DHT22;58099;43.406;3.698;2023-06-22T07:08:59;23.80;99.90
70548;DHT22;58099;43.406;3.698;2023-06-22T07:11:26;23.70;99.90
70548;DHT22;58099;43.406;3.698;2023-06-22T07:13:52;23.80;99.90
70548;DHT22;58099;43.406;3.698;2023-06-22T07:16:18;23.80;99.90
70548;DHT22;58099;43.406;3.698;2023-06-22T07:18:43;23.80;99.90
70548;DHT22;58099;43.406;3.698;2023-06-22T07:21:09;23.70;99.90
70548;DHT22;58099;43.406;3.698;2023-06-22T07:23:35;23.90;99.90
70548;DHT22;58099;43.406;3.698;2023-06-22T07:26:00;24.00;99.90
70548;DHT22;58099;43.406;3.698;2023-06-22T07:28:31;23.90;99.90
70548;DHT22;58099;43.406;3.698;2023-06-22T07:31:02;23.80;99.90
70548;DHT22;58099;43.406;3.698;2023-06-22T07:33:29;23.80;99.90
70548;DHT22;58099;43.406;3.698;2023-06-22T07:35:55;23.80;99.90
70548;DHT22;58099;43.406;3.698;2023-06-22T07:38:20;23.80;99.90
70548;DHT22;58099;43.406;3.698;2023-06-22T07:40:47;23.70;99.90
70548;DHT22;58099;43.406;3.698;2023-06-22T07:43:13;23.70;99.90
70548;DHT22;58099;43.406;3.698;2023-06-22T07:45:39;23.70;99.90
70548;DHT22;58099;43.406;3.698;2023-06-22T07:48:06;23.80;99.90
70548;DHT22;58099;43.406;3.698;2023-06-22T07:50:32;23.60;99.90
70548;DHT22;58099;43.406;3.698;2023-06-22T07:52:58;23.60;99.90
70548;DHT22;58099;43.406;3.698;2023-06-22T07:55:24;23.60;99.90
70548;DHT22;58099;43.406;3.698;2023-06-22T07:57:49;23.70;99.90
70548;DHT22;58099;43.406;3.698;2023-06-22T08:00:17;23.70;99.90
70548;DHT22;58099;43.406;3.698;2023-06-22T08:02:44;23.80;99.90
70548;DHT22;58099;43.406;3.698;2023-06-22T08:05:11;23.80;99.90
70548;DHT22;58099;43.406;3.698;2023-06-22T08:07:37;23.80;99.90
70548;DHT22;58099;43.406;3.698;2023-06-22T08:10:08;23.90;99.90
70548;DHT22;58099;43.406;3.698;2023-06-22T08:12:35;24.00;99.90
70548;DHT22;58099;43.406;3.698;2023-06-22T08:15:01;24.00;99.90
70548;DHT22;58099;43.406;3.698;2023-06-22T08:17:27;24.10;99.90
70548;DHT22;58099;43.406;3.698;2023-06-22T08:19:52;24.00;99.90
70548;DHT22;58099;43.406;3.698;2023-06-22T08:22:18;23.90;99.90
70548;DHT22;58099;43.406;3.698;2023-06-22T08:24:44;23.80;99.90
70548;DHT22;58099;43.406;3.698;2023-06-22T08:27:10;23.80;99.90
70548;DHT22;58099;43.406;3.698;2023-06-22T08:29:40;23.80;99.90
70548;DHT22;58099;43.406;3.698;2023-06-22T08:32:09;23.90;99.90
70548;DHT22;58099;43.406;3.698;2023-06-22T08:34:36;23.90;99.90
70548;DHT22;58099;43.406;3.698;2023-06-22T08:37:02;24.00;99.90
70548;DHT22;58099;43.406;3.698;2023-06-22T08:39:32;24.30;99.90
70548;DHT22;58099;43.406;3.698;2023-06-22T08:41:57;24.40;99.90
70548;DHT22;58099;43.406;3.698;2023-06-22T08:44:23;24.60;99.90
70548;DHT22;58099;43.406;3.698;2023-06-22T08:46:49;24.70;99.90
70548;DHT22;58099;43.406;3.698;2023-06-22T08:49:14;24.50;99.90
70548;DHT22;58099;43.406;3.698;2023-06-22T08:51:40;24.40;99.90
70548;DHT22;58099;43.406;3.698;2023-06-22T08:54:06;24.30;99.90
70548;DHT22;58099;43.406;3.698;2023-06-22T08:56:32;24.30;99.90
70548;DHT22;58099;43.406;3.698;2023-06-22T08:58:58;24.20;99.90
70548;DHT22;58099;43.406;3.698;2023-06-22T09:01:23;24.20;99.90
70548;DHT22;58099;43.406;3.698;2023-06-22T09:03:49;24.20;99.90
70548;DHT22;58099;43.406;3.698;2023-06-22T09:06:20;24.20;99.90
70548;DHT22;58099;43.406;3.698;2023-06-22T09:08:47;24.30;99.90
70548;DHT22;58099;43.406;3.698;2023-06-22T09:11:12;24.20;99.90
70548;DHT22;58099;43.406;3.698;2023-06-22T09:13:38;24.20;99.90
70548;DHT22;58099;43.406;3.698;2023-06-22T09:16:04;24.10;99.90
70548;DHT22;58099;43.406;3.698;2023-06-22T09:18:30;24.20;99.90
70548;DHT22;58099;43.406;3.698;2023-06-22T09:20:56;24.20;99.90
70548;DHT22;58099;43.406;3.698;2023-06-22T09:23:21;24.40;99.90
70548;DHT22;58099;43.406;3.698;2023-06-22T09:25:47;24.60;99.90
70548;DHT22;58099;43.406;3.698;2023-06-22T09:28:14;24.60;99.90
70548;DHT22;58099;43.406;3.698;2023-06-22T09:30:40;24.80;99.90
70548;DHT22;58099;43.406;3.698;2023-06-22T09:33:06;24.90;99.90
70548;DHT22;58099;43.406;3.698;2023-06-22T09:35:31;24.80;99.90
70548;DHT22;58099;43.406;3.698;2023-06-22T09:37:57;24.70;99.90
70548;DHT22;58099;43.406;3.698;2023-06-22T09:40:23;25.00;99.90
70548;DHT22;58099;43.406;3.698;2023-06-22T09:42:48;25.10;99.90
70548;DHT22;58099;43.406;3.698;2023-06-22T09:45:14;25.40;99.90
70548;DHT22;58099;43.406;3.698;2023-06-22T09:47:40;25.40;99.90
70548;DHT22;58099;43.406;3.698;2023-06-22T09:50:06;25.40;99.90
70548;DHT22;58099;43.406;3.698;2023-06-22T09:52:32;25.30;99.90
70548;DHT22;58099;43.406;3.698;2023-06-22T09:54:58;25.30;99.90
70548;DHT22;58099;43.406;3.698;2023-06-22T09:57:23;25.50;99.90
70548;DHT22;58099;43.406;3.698;2023-06-22T09:59:49;25.80;99.90
70548;DHT22;58099;43.406;3.698;2023-06-22T10:02:15;26.00;99.90
70548;DHT22;58099;43.406;3.698;2023-06-22T10:04:40;26.10;99.90
70548;DHT22;58099;43.406;3.698;2023-06-22T10:07:06;26.20;99.90
70548;DHT22;58099;43.406;3.698;2023-06-22T10:09:32;26.30;99.90
70548;DHT22;58099;43.406;3.698;2023-06-22T10:11:57;26.40;99.90
70548;DHT22;58099;43.406;3.698;2023-06-22T10:14:23;26.40;99.90
70548;DHT22;58099;43.406;3.698;2023-06-22T10:16:52;26.60;99.90
70548;DHT22;58099;43.406;3.698;2023-06-22T10:19:17;26.70;99.90
70548;DHT22;58099;43.406;3.698;2023-06-22T10:21:43;26.60;99.90
70548;DHT22;58099;43.406;3.698;2023-06-22T10:24:09;26.50;99.90
70548;DHT22;58099;43.406;3.698;2023-06-22T10:26:36;26.30;99.90
70548;DHT22;58099;43.406;3.698;2023-06-22T10:29:02;26.00;99.90
70548;DHT22;58099;43.406;3.698;2023-06-22T10:31:28;25.70;99.90
70548;DHT22;58099;43.406;3.698;2023-06-22T10:33:54;25.60;99.90
70548;DHT22;58099;43.406;3.698;2023-06-22T10:36:21;25.70;99.90
70548;DHT22;58099;43.406;3.698;2023-06-22T10:38:48;25.80;99.90
70548;DHT22;58099;43.406;3.698;2023-06-22T10:41:14;26.10;99.90
70548;DHT22;58099;43.406;3.698;2023-06-22T10:43:39;26.10;99.90
70548;DHT22;58099;43.406;3.698;2023-06-22T10:46:06;25.80;99.90
70548;DHT22;58099;43.406;3.698;2023-06-22T10:48:32;25.70;99.90
70548;DHT22;58099;43.406;3.698;2023-06-22T10:50:58;25.70;99.90
70548;DHT22;58099;43.406;3.698;2023-06-22T10:53:24;25.50;99.90
70548;DHT22;58099;43.406;3.698;2023-06-22T10:55:50;25.20;99.90
70548;DHT22;58099;43.406;3.698;2023-06-22T10:58:18;25.30;99.90
70548;DHT22;58099;43.406;3.698;2023-06-22T11:00:45;25.30;99.90
70548;DHT22;58099;43.406;3.698;2023-06-22T11:03:10;25.20;99.90
70548;DHT22;58099;43.406;3.698;2023-06-22T11:05:36;25.10;99.90
70548;DHT22;58099;43.406;3.698;2023-06-22T11:08:02;25.10;99.90
70548;DHT22;58099;43.406;3.698;2023-06-22T11:10:27;25.30;99.90
70548;DHT22;58099;43.406;3.698;2023-06-22T11:12:53;25.30;99.90
70548;DHT22;58099;43.406;3.698;2023-06-22T11:15:20;25.50;99.90
70548;DHT22;58099;43.406;3.698;2023-06-22T11:17:46;25.50;99.90
70548;DHT22;58099;43.406;3.698;2023-06-22T11:20:12;25.50;99.90
70548;DHT22;58099;43.406;3.698;2023-06-22T11:22:38;25.80;99.90
70548;DHT22;58099;43.406;3.698;2023-06-22T11:25:05;26.30;99.90
70548;DHT22;58099;43.406;3.698;2023-06-22T11:27:31;26.30;99.90
70548;DHT22;58099;43.406;3.698;2023-06-22T11:29:57;26.60;99.90
70548;DHT22;58099;43.406;3.698;2023-06-22T11:32:23;26.90;99.90
70548;DHT22;58099;43.406;3.698;2023-06-22T11:34:48;27.00;99.90
70548;DHT22;58099;43.406;3.698;2023-06-22T11:37:14;27.30;99.90
70548;DHT22;58099;43.406;3.698;2023-06-22T11:39:41;27.70;99.90
70548;DHT22;58099;43.406;3.698;2023-06-22T11:42:07;27.90;99.90
70548;DHT22;58099;43.406;3.698;2023-06-22T11:44:33;28.10;99.90
70548;DHT22;58099;43.406;3.698;2023-06-22T11:46:59;28.10;99.90
70548;DHT22;58099;43.406;3.698;2023-06-22T11:49:26;28.10;99.90
70548;DHT22;58099;43.406;3.698;2023-06-22T11:51:52;28.30;99.90
70548;DHT22;58099;43.406;3.698;2023-06-22T11:54:18;28.30;99.90
70548;DHT22;58099;43.406;3.698;2023-06-22T11:56:44;28.70;99.90
70548;DHT22;58099;43.406;3.698;2023-06-22T11:59:09;29.40;99.90
70548;DHT22;58099;43.406;3.698;2023-06-22T12:01:35;30.10;99.90
70548;DHT22;58099;43.406;3.698;2023-06-22T12:04:01;30.00;99.90
70548;DHT22;58099;43.406;3.698;2023-06-22T12:06:27;29.80;99.90
70548;DHT22;58099;43.406;3.698;2023-06-22T12:08:52;30.00;99.90
70548;DHT22;58099;43.406;3.698;2023-06-22T12:11:18;29.90;99.90
70548;DHT22;58099;43.406;3.698;2023-06-22T12:13:44;29.80;99.90
70548;DHT22;58099;43.406;3.698;2023-06-22T12:16:09;29.70;99.90
70548;DHT22;58099;43.406;3.698;2023-06-22T12:18:35;29.30;99.90
70548;DHT22;58099;43.406;3.698;2023-06-22T12:21:01;29.50;99.90
70548;DHT22;58099;43.406;3.698;2023-06-22T12:23:26;29.80;99.90
70548;DHT22;58099;43.406;3.698;2023-06-22T12:25:52;29.90;99.90
70548;DHT22;58099;43.406;3.698;2023-06-22T12:28:18;30.00;99.90
70548;DHT22;58099;43.406;3.698;2023-06-22T12:30:44;30.10;99.60
70548;DHT22;58099;43.406;3.698;2023-06-22T12:33:09;30.00;99.50
70548;DHT22;58099;43.406;3.698;2023-06-22T12:35:35;29.90;99.70
70548;DHT22;58099;43.406;3.698;2023-06-22T12:38:01;29.80;99.90
70548;DHT22;58099;43.406;3.698;2023-06-22T12:40:28;29.50;99.80
70548;DHT22;58099;43.406;3.698;2023-06-22T12:42:54;29.30;99.90
70548;DHT22;58099;43.406;3.698;2023-06-22T12:45:19;29.20;99.90
70548;DHT22;58099;43.406;3.698;2023-06-22T12:47:46;29.00;99.90
70548;DHT22;58099;43.406;3.698;2023-06-22T12:50:12;29.00;99.90
70548;DHT22;58099;43.406;3.698;2023-06-22T12:52:39;29.00;99.90
70548;DHT22;58099;43.406;3.698;2023-06-22T12:55:06;28.80;99.90
70548;DHT22;58099;43.406;3.698;2023-06-22T12:57:32;28.80;99.90
70548;DHT22;58099;43.406;3.698;2023-06-22T12:59:58;28.90;99.90
70548;DHT22;58099;43.406;3.698;2023-06-22T13:02:26;29.40;99.90
70548;DHT22;58099;43.406;3.698;2023-06-22T13:04:51;29.60;99.90
70548;DHT22;58099;43.406;3.698;2023-06-22T13:07:17;29.20;99.90
70548;DHT22;58099;43.406;3.698;2023-06-22T13:09:43;28.90;99.90
70548;DHT22;58099;43.406;3.698;2023-06-22T13:12:10;28.40;99.90
70548;DHT22;58099;43.406;3.698;2023-06-22T13:14:36;27.90;99.90
70548;DHT22;58099;43.406;3.698;2023-06-22T13:17:02;28.10;99.90
70548;DHT22;58099;43.406;3.698;2023-06-22T13:19:28;28.00;99.90
70548;DHT22;58099;43.406;3.698;2023-06-22T13:21:58;28.20;99.90
70548;DHT22;58099;43.406;3.698;2023-06-22T13:24:23;28.20;99.90
70548;DHT22;58099;43.406;3.698;2023-06-22T13:26:49;28.20;99.90
70548;DHT22;58099;43.406;3.698;2023-06-22T13:29:14;28.20;99.90
70548;DHT22;58099;43.406;3.698;2023-06-22T13:31:40;28.20;99.90
70548;DHT22;58099;43.406;3.698;2023-06-22T13:34:06;28.20;99.90
70548;DHT22;58099;43.406;3.698;2023-06-22T13:36:32;28.10;99.90
70548;DHT22;58099;43.406;3.698;2023-06-22T13:38:57;27.90;99.90
70548;DHT22;58099;43.406;3.698;2023-06-22T13:41:23;27.20;99.90
70548;DHT22;58099;43.406;3.698;2023-06-22T13:43:49;26.50;99.90
70548;DHT22;58099;43.406;3.698;2023-06-22T13:46:14;26.10;99.90
70548;DHT22;58099;43.406;3.698;2023-06-22T13:48:40;26.00;99.90
70548;DHT22;58099;43.406;3.698;2023-06-22T13:51:06;26.30;99.90
70548;DHT22;58099;43.406;3.698;2023-06-22T13:53:31;26.40;99.90
70548;DHT22;58099;43.406;3.698;2023-06-22T13:55:57;26.70;99.90
70548;DHT22;58099;43.406;3.698;2023-06-22T13:58:23;27.00;99.90
70548;DHT22;58099;43.406;3.698;2023-06-22T14:00:49;27.20;99.90
70548;DHT22;58099;43.406;3.698;2023-06-22T14:03:14;27.20;99.90
70548;DHT22;58099;43.406;3.698;2023-06-22T14:05:42;27.40;99.90
70548;DHT22;58099;43.406;3.698;2023-06-22T14:08:08;27.70;99.90
70548;DHT22;58099;43.406;3.698;2023-06-22T14:10:34;28.00;99.90
70548;DHT22;58099;43.406;3.698;2023-06-22T14:13:00;28.20;99.80
70548;DHT22;58099;43.406;3.698;2023-06-22T14:15:26;28.40;99.00
70548;DHT22;58099;43.406;3.698;2023-06-22T14:17:52;28.40;98.50
70548;DHT22;58099;43.406;3.698;2023-06-22T14:20:21;28.60;98.20
70548;DHT22;58099;43.406;3.698;2023-06-22T14:22:47;28.80;98.10
70548;DHT22;58099;43.406;3.698;2023-06-22T14:25:12;28.90;97.70
70548;DHT22;58099;43.406;3.698;2023-06-22T14:27:38;29.10;97.70
70548;DHT22;58099;43.406;3.698;2023-06-22T14:30:04;29.20;97.40
70548;DHT22;58099;43.406;3.698;2023-06-22T14:32:30;29.30;96.80
70548;DHT22;58099;43.406;3.698;2023-06-22T14:34:56;29.40;96.10
70548;DHT22;58099;43.406;3.698;2023-06-22T14:37:21;29.60;96.10
70548;DHT22;58099;43.406;3.698;2023-06-22T14:39:47;29.70;96.10
70548;DHT22;58099;43.406;3.698;2023-06-22T14:42:12;29.90;96.20
70548;DHT22;58099;43.406;3.698;2023-06-22T14:44:38;30.00;95.90
70548;DHT22;58099;43.406;3.698;2023-06-22T14:47:04;30.00;95.50
70548;DHT22;58099;43.406;3.698;2023-06-22T14:49:30;30.20;95.60
70548;DHT22;58099;43.406;3.698;2023-06-22T14:51:56;30.30;95.10
70548;DHT22;58099;43.406;3.698;2023-06-22T14:54:21;30.30;95.10
70548;DHT22;58099;43.406;3.698;2023-06-22T14:56:48;30.50;94.90
70548;DHT22;58099;43.406;3.698;2023-06-22T14:59:14;30.50;94.40
70548;DHT22;58099;43.406;3.698;2023-06-22T15:01:39;30.60;94.50
70548;DHT22;58099;43.406;3.698;2023-06-22T15:04:05;30.60;94.40
70548;DHT22;58099;43.406;3.698;2023-06-22T15:06:31;30.50;94.40
70548;DHT22;58099;43.406;3.698;2023-06-22T15:08:56;30.40;94.80
70548;DHT22;58099;43.406;3.698;2023-06-22T15:11:22;30.40;93.90
70548;DHT22;58099;43.406;3.698;2023-06-22T15:13:48;30.40;94.30
70548;DHT22;58099;43.406;3.698;2023-06-22T15:16:14;30.40;94.20
70548;DHT22;58099;43.406;3.698;2023-06-22T15:18:40;30.50;94.00
70548;DHT22;58099;43.406;3.698;2023-06-22T15:21:06;30.30;94.40
70548;DHT22;58099;43.406;3.698;2023-06-22T15:23:33;30.10;94.80
70548;DHT22;58099;43.406;3.698;2023-06-22T15:26:00;30.00;94.20
70548;DHT22;58099;43.406;3.698;2023-06-22T15:28:28;29.80;94.50
70548;DHT22;58099;43.406;3.698;2023-06-22T15:30:54;29.70;94.10